sensor_id;sensor_type;location;lat;lon;timestamp;pressure;altitude;pressure_sealevel;temperature;humidity
56052;BME280;41919;42.648;23.384;2023-05-02T00:01:05;94883.97;;;11.07;82.17
56052;BME280;41919;42.648;23.384;2023-05-02T00:03:31;94846.66;;;10.71;82.72
56052;BME280;41919;42.648;23.384;2023-05-02T00:06:01;94919.78;;;11.13;83.08
56052;BME280;41919;42.648;23.384;2023-05-02T00:08:26;94847.66;;;10.70;83.07
56052;BME280;41919;42.648;23.384;2023-05-02T00:10:52;94910.09;;;11.00;83.77
56052;BME280;41919;42.648;23.384;2023-05-02T00:13:17;94870.53;;;10.62;84.20
56052;BME280;41919;42.648;23.384;2023-05-02T00:15:43;94907.13;;;10.62;85.99
56052;BME280;41919;42.648;23.384;2023-05-02T00:18:08;94880.00;;;10.21;88.68
56052;BME280;41919;42.648;23.384;2023-05-02T00:20:34;94923.91;;;10.39;90.07
56052;BME280;41919;42.648;23.384;2023-05-02T00:22:59;94864.63;;;10.05;90.65
56052;BME280;41919;42.648;23.384;2023-05-02T00:25:25;94916.06;;;10.39;91.25
56052;BME280;41919;42.648;23.384;2023-05-02T00:27:50;94852.22;;;10.13;89.89
56052;BME280;41919;42.648;23.384;2023-05-02T00:30:17;94871.34;;;10.20;90.58
56052;BME280;41919;42.648;23.384;2023-05-02T00:32:43;94928.84;;;10.62;90.35
56052;BME280;41919;42.648;23.384;2023-05-02T00:35:09;94931.72;;;10.74;89.75
56052;BME280;41919;42.648;23.384;2023-05-02T00:37:35;94909.34;;;10.58;89.41
56052;BME280;41919;42.648;23.384;2023-05-02T00:40:00;94880.66;;;10.30;89.70
56052;BME280;41919;42.648;23.384;2023-05-02T00:42:26;94896.41;;;10.43;89.42
56052;BME280;41919;42.648;23.384;2023-05-02T00:44:55;94821.19;;;9.97;89.18
56052;BME280;41919;42.648;23.384;2023-05-02T00:47:21;94889.75;;;10.34;90.25
56052;BME280;41919;42.648;23.384;2023-05-02T00:49:46;94952.59;;;10.61;90.95
56052;BME280;41919;42.648;23.384;2023-05-02T00:52:12;94882.97;;;10.18;91.52
56052;BME280;41919;42.648;23.384;2023-05-02T00:54:37;94919.53;;;10.46;92.45
56052;BME280;41919;42.648;23.384;2023-05-02T00:57:07;94888.88;;;10.27;92.67
56052;BME280;41919;42.648;23.384;2023-05-02T00:59:34;94894.97;;;10.34;93.02
56052;BME280;41919;42.648;23.384;2023-05-02T01:02:17;94938.50;;;10.62;93.22
56052;BME280;41919;42.648;23.384;2023-05-02T01:05:20;94943.72;;;10.62;94.13
56052;BME280;41919;42.648;23.384;2023-05-02T01:08:39;94941.28;;;10.53;95.12
56052;BME280;41919;42.648;23.384;2023-05-02T01:11:27;94874.28;;;10.04;95.72
56052;BME280;41919;42.648;23.384;2023-05-02T01:14:00;94941.91;;;10.27;98.16
56052;BME280;41919;42.648;23.384;2023-05-02T01:16:29;94943.88;;;10.18;99.74
56052;BME280;41919;42.648;23.384;2023-05-02T01:18:56;94920.38;;;10.18;100.00
56052;BME280;41919;42.648;23.384;2023-05-02T01:21:23;94892.19;;;10.07;100.00
56052;BME280;41919;42.648;23.384;2023-05-02T01:24:06;94936.63;;;10.49;99.04
56052;BME280;41919;42.648;23.384;2023-05-02T01:29:02;94861.53;;;10.23;97.96
56052;BME280;41919;42.648;23.384;2023-05-02T01:31:30;94883.78;;;10.53;97.44
56052;BME280;41919;42.648;23.384;2023-05-02T01:33:59;94917.69;;;10.82;96.44
56052;BME280;41919;42.648;23.384;2023-05-02T01:36:28;94874.97;;;10.61;95.72
56052;BME280;41919;42.648;23.384;2023-05-02T01:38:56;94859.69;;;10.58;94.83
56052;BME280;41919;42.648;23.384;2023-05-02T01:41:24;94928.38;;;10.93;94.27
56052;BME280;41919;42.648;23.384;2023-05-02T01:43:50;94922.91;;;10.88;94.17
56052;BME280;41919;42.648;23.384;2023-05-02T01:46:17;94941.78;;;10.77;94.71
56052;BME280;41919;42.648;23.384;2023-05-02T01:48:45;94878.09;;;10.43;94.42
56052;BME280;41919;42.648;23.384;2023-05-02T01:51:14;94887.56;;;10.44;94.80
56052;BME280;41919;42.648;23.384;2023-05-02T01:53:43;94901.66;;;10.50;94.92
56052;BME280;41919;42.648;23.384;2023-05-02T01:56:10;94954.47;;;10.80;95.14
56052;BME280;41919;42.648;23.384;2023-05-02T01:58:37;94900.44;;;10.46;94.79
56052;BME280;41919;42.648;23.384;2023-05-02T02:01:04;94890.19;;;10.44;95.31
56052;BME280;41919;42.648;23.384;2023-05-02T02:03:30;94941.41;;;10.87;95.10
56052;BME280;41919;42.648;23.384;2023-05-02T02:05:57;94940.25;;;10.89;95.32
56052;BME280;41919;42.648;23.384;2023-05-02T02:08:23;94881.59;;;10.64;95.27
56052;BME280;41919;42.648;23.384;2023-05-02T02:10:56;94925.75;;;10.93;94.96
56052;BME280;41919;42.648;23.384;2023-05-02T02:13:30;94925.78;;;11.00;94.33
56052;BME280;41919;42.648;23.384;2023-05-02T02:16:00;94931.03;;;11.13;92.87
56052;BME280;41919;42.648;23.384;2023-05-02T02:18:28;94924.78;;;11.08;93.47
56052;BME280;41919;42.648;23.384;2023-05-02T02:20:58;94944.72;;;11.15;93.04
56052;BME280;41919;42.648;23.384;2023-05-02T02:23:25;94943.53;;;11.18;92.78
56052;BME280;41919;42.648;23.384;2023-05-02T02:25:53;94887.91;;;10.76;92.59
56052;BME280;41919;42.648;23.384;2023-05-02T02:28:19;94935.44;;;10.99;93.62
56052;BME280;41919;42.648;23.384;2023-05-02T02:30:44;94865.69;;;10.52;93.14
56052;BME280;41919;42.648;23.384;2023-05-02T02:33:10;94891.44;;;10.62;93.55
56052;BME280;41919;42.648;23.384;2023-05-02T02:35:43;94932.94;;;10.78;93.90
56052;BME280;41919;42.648;23.384;2023-05-02T02:40:55;94953.47;;;10.81;94.07
56052;BME280;41919;42.648;23.384;2023-05-02T02:46:26;94946.34;;;10.62;95.42
56052;BME280;41919;42.648;23.384;2023-05-02T02:51:57;94886.38;;;10.12;97.47
56052;BME280;41919;42.648;23.384;2023-05-02T03:00:06;94895.66;;;9.86;99.95
56052;BME280;41919;42.648;23.384;2023-05-02T03:02:34;94876.28;;;9.74;99.93
56052;BME280;41919;42.648;23.384;2023-05-02T03:05:01;94884.13;;;9.74;100.00
56052;BME280;41919;42.648;23.384;2023-05-02T03:07:28;94955.56;;;10.23;100.00
56052;BME280;41919;42.648;23.384;2023-05-02T03:09:54;94937.34;;;10.01;100.00
56052;BME280;41919;42.648;23.384;2023-05-02T03:12:20;94860.25;;;9.49;100.00
56052;BME280;41919;42.648;23.384;2023-05-02T03:14:45;94886.88;;;9.66;100.00
56052;BME280;41919;42.648;23.384;2023-05-02T03:17:11;94905.25;;;9.79;100.00
56052;BME280;41919;42.648;23.384;2023-05-02T03:19:36;94808.50;;;9.24;100.00
56052;BME280;41919;42.648;23.384;2023-05-02T03:22:02;94957.66;;;10.34;100.00
56052;BME280;41919;42.648;23.384;2023-05-02T03:24:28;94973.41;;;10.47;100.00
56052;BME280;41919;42.648;23.384;2023-05-02T03:26:57;94920.94;;;10.14;99.31
56052;BME280;41919;42.648;23.384;2023-05-02T03:29:24;94980.13;;;10.63;98.29
56052;BME280;41919;42.648;23.384;2023-05-02T03:31:50;94918.97;;;10.23;98.08
56052;BME280;41919;42.648;23.384;2023-05-02T03:34:15;94996.00;;;10.62;97.91
56052;BME280;41919;42.648;23.384;2023-05-02T03:36:40;94982.75;;;10.63;97.81
56052;BME280;41919;42.648;23.384;2023-05-02T03:39:06;94974.28;;;10.61;97.21
56052;BME280;41919;42.648;23.384;2023-05-02T03:41:32;94975.16;;;10.75;96.73
56052;BME280;41919;42.648;23.384;2023-05-02T03:43:57;94967.09;;;10.70;96.33
56052;BME280;41919;42.648;23.384;2023-05-02T03:46:22;94924.63;;;10.26;97.31
56052;BME280;41919;42.648;23.384;2023-05-02T03:48:49;94920.69;;;10.37;96.47
56052;BME280;41919;42.648;23.384;2023-05-02T03:51:14;94955.22;;;10.67;95.92
56052;BME280;41919;42.648;23.384;2023-05-02T03:53:40;94973.56;;;10.74;95.33
56052;BME280;41919;42.648;23.384;2023-05-02T03:56:05;94970.94;;;10.74;95.18
56052;BME280;41919;42.648;23.384;2023-05-02T03:58:33;94930.66;;;10.55;94.71
56052;BME280;41919;42.648;23.384;2023-05-02T04:00:58;94963.78;;;10.89;94.38
56052;BME280;41919;42.648;23.384;2023-05-02T04:03:23;94968.41;;;11.01;92.72
56052;BME280;41919;42.648;23.384;2023-05-02T04:05:49;94998.47;;;11.18;92.48
56052;BME280;41919;42.648;23.384;2023-05-02T04:08:16;94930.19;;;10.99;91.23
56052;BME280;41919;42.648;23.384;2023-05-02T04:10:41;94981.84;;;11.39;89.91
56052;BME280;41919;42.648;23.384;2023-05-02T04:13:07;94915.34;;;11.07;90.51
56052;BME280;41919;42.648;23.384;2023-05-02T04:15:32;94909.09;;;11.01;89.62
56052;BME280;41919;42.648;23.384;2023-05-02T04:17:58;94957.25;;;11.40;88.87
56052;BME280;41919;42.648;23.384;2023-05-02T04:20:23;94981.44;;;11.55;89.27
56052;BME280;41919;42.648;23.384;2023-05-02T04:22:49;94996.97;;;11.64;88.65
56052;BME280;41919;42.648;23.384;2023-05-02T04:25:15;94974.19;;;11.51;89.77
56052;BME280;41919;42.648;23.384;2023-05-02T04:27:41;94958.50;;;11.51;87.73
56052;BME280;41919;42.648;23.384;2023-05-02T04:30:07;94992.56;;;11.77;86.55
56052;BME280;41919;42.648;23.384;2023-05-02T04:32:32;94979.66;;;11.69;85.19
56052;BME280;41919;42.648;23.384;2023-05-02T04:34:58;94926.47;;;11.42;85.35
56052;BME280;41919;42.648;23.384;2023-05-02T04:37:24;94997.22;;;12.09;81.24
56052;BME280;41919;42.648;23.384;2023-05-02T04:39:50;94998.63;;;12.25;81.60
56052;BME280;41919;42.648;23.384;2023-05-02T04:42:15;95000.84;;;12.34;80.29
56052;BME280;41919;42.648;23.384;2023-05-02T04:44:41;95002.84;;;12.52;78.10
56052;BME280;41919;42.648;23.384;2023-05-02T04:47:06;94995.97;;;12.51;78.82
56052;BME280;41919;42.648;23.384;2023-05-02T04:49:31;94971.19;;;12.47;77.93
56052;BME280;41919;42.648;23.384;2023-05-02T04:51:57;94992.28;;;12.79;75.93
56052;BME280;41919;42.648;23.384;2023-05-02T04:54:23;94993.50;;;12.83;73.79
56052;BME280;41919;42.648;23.384;2023-05-02T04:56:48;95020.09;;;12.93;74.92
56052;BME280;41919;42.648;23.384;2023-05-02T04:59:14;94978.50;;;12.90;73.15
56052;BME280;41919;42.648;23.384;2023-05-02T05:01:39;95008.66;;;13.26;72.42
56052;BME280;41919;42.648;23.384;2023-05-02T05:04:05;94996.09;;;13.42;71.39
56052;BME280;41919;42.648;23.384;2023-05-02T05:06:30;95003.31;;;13.53;69.03
56052;BME280;41919;42.648;23.384;2023-05-02T05:08:56;94989.06;;;13.29;66.42
56052;BME280;41919;42.648;23.384;2023-05-02T05:11:21;94944.22;;;12.92;66.23
56052;BME280;41919;42.648;23.384;2023-05-02T05:13:47;95015.66;;;13.46;67.06
56052;BME280;41919;42.648;23.384;2023-05-02T05:16:12;95000.94;;;13.45;66.55
56052;BME280;41919;42.648;23.384;2023-05-02T05:21:11;95005.19;;;13.78;67.09
56052;BME280;41919;42.648;23.384;2023-05-02T05:23:37;94950.84;;;13.46;64.97
56052;BME280;41919;42.648;23.384;2023-05-02T05:26:09;95010.72;;;13.95;64.62
56052;BME280;41919;42.648;23.384;2023-05-02T05:28:35;95002.53;;;13.78;65.05
56052;BME280;41919;42.648;23.384;2023-05-02T05:31:07;95007.31;;;13.94;65.10
56052;BME280;41919;42.648;23.384;2023-05-02T05:33:34;94974.91;;;13.75;63.98
56052;BME280;41919;42.648;23.384;2023-05-02T05:36:06;95035.00;;;13.90;64.69
56052;BME280;41919;42.648;23.384;2023-05-02T05:38:32;95013.50;;;14.00;63.59
56052;BME280;41919;42.648;23.384;2023-05-02T05:40:58;95005.66;;;14.25;63.95
56052;BME280;41919;42.648;23.384;2023-05-02T05:43:23;94973.88;;;14.01;62.27
56052;BME280;41919;42.648;23.384;2023-05-02T05:45:54;95016.31;;;14.05;62.56
56052;BME280;41919;42.648;23.384;2023-05-02T05:48:20;95030.41;;;14.10;64.21
56052;BME280;41919;42.648;23.384;2023-05-02T05:50:46;94977.19;;;13.90;63.25
56052;BME280;41919;42.648;23.384;2023-05-02T05:53:12;95011.63;;;14.32;65.00
56052;BME280;41919;42.648;23.384;2023-05-02T05:55:37;94986.97;;;14.33;62.43
56052;BME280;41919;42.648;23.384;2023-05-02T05:58:04;95022.38;;;14.56;62.58
56052;BME280;41919;42.648;23.384;2023-05-02T06:00:29;94973.59;;;14.35;61.02
56052;BME280;41919;42.648;23.384;2023-05-02T06:02:55;95021.53;;;14.62;60.95
56052;BME280;41919;42.648;23.384;2023-05-02T06:05:20;94879.50;;;13.75;59.84
56052;BME280;41919;42.648;23.384;2023-05-02T06:07:46;94967.53;;;14.34;60.00
56052;BME280;41919;42.648;23.384;2023-05-02T06:10:11;95036.13;;;14.76;58.50
56052;BME280;41919;42.648;23.384;2023-05-02T06:12:37;95028.31;;;14.69;58.33
56052;BME280;41919;42.648;23.384;2023-05-02T06:15:02;94951.13;;;14.39;58.99
56052;BME280;41919;42.648;23.384;2023-05-02T06:17:28;95018.09;;;14.98;58.37
56052;BME280;41919;42.648;23.384;2023-05-02T06:19:53;95013.66;;;15.17;57.31
56052;BME280;41919;42.648;23.384;2023-05-02T06:22:19;95011.47;;;15.44;57.21
56052;BME280;41919;42.648;23.384;2023-05-02T06:24:44;95003.72;;;15.49;53.85
56052;BME280;41919;42.648;23.384;2023-05-02T06:27:09;95016.78;;;15.75;54.14
56052;BME280;41919;42.648;23.384;2023-05-02T06:29:35;95017.97;;;15.91;52.35
56052;BME280;41919;42.648;23.384;2023-05-02T06:32:00;95028.06;;;15.94;52.58
56052;BME280;41919;42.648;23.384;2023-05-02T06:34:26;94965.38;;;15.84;52.27
56052;BME280;41919;42.648;23.384;2023-05-02T06:36:54;94951.28;;;16.02;50.66
56052;BME280;41919;42.648;23.384;2023-05-02T06:39:23;95025.97;;;16.61;49.71
56052;BME280;41919;42.648;23.384;2023-05-02T06:41:48;95013.50;;;16.57;49.85
56052;BME280;41919;42.648;23.384;2023-05-02T06:44:14;95024.59;;;16.94;48.26
56052;BME280;41919;42.648;23.384;2023-05-02T06:46:39;95015.72;;;17.24;47.79
56052;BME280;41919;42.648;23.384;2023-05-02T06:49:05;94961.56;;;17.38;46.95
56052;BME280;41919;42.648;23.384;2023-05-02T06:51:30;95008.84;;;17.80;45.26
56052;BME280;41919;42.648;23.384;2023-05-02T06:53:56;95010.84;;;18.53;44.21
56052;BME280;41919;42.648;23.384;2023-05-02T06:56:22;94996.88;;;18.96;43.18
56052;BME280;41919;42.648;23.384;2023-05-02T06:58:50;95006.56;;;19.08;41.83
56052;BME280;41919;42.648;23.384;2023-05-02T07:01:15;94996.72;;;19.96;39.56
56052;BME280;41919;42.648;23.384;2023-05-02T07:03:41;95004.47;;;19.76;40.04
56052;BME280;41919;42.648;23.384;2023-05-02T07:06:06;94950.56;;;19.43;38.77
56052;BME280;41919;42.648;23.384;2023-05-02T07:08:31;94996.13;;;20.22;38.38
56052;BME280;41919;42.648;23.384;2023-05-02T07:14:27;94995.88;;;19.96;38.01
56052;BME280;41919;42.648;23.384;2023-05-02T07:16:52;95002.78;;;19.70;38.94
56052;BME280;41919;42.648;23.384;2023-05-02T07:19:18;94875.53;;;19.15;38.66
56052;BME280;41919;42.648;23.384;2023-05-02T07:21:43;94946.41;;;19.03;40.33
56052;BME280;41919;42.648;23.384;2023-05-02T07:24:08;95000.75;;;18.89;40.52
56052;BME280;41919;42.648;23.384;2023-05-02T07:26:34;94985.91;;;18.49;41.16
56052;BME280;41919;42.648;23.384;2023-05-02T07:29:00;94985.16;;;18.70;40.68
56052;BME280;41919;42.648;23.384;2023-05-02T07:31:25;94943.16;;;18.23;40.82
56052;BME280;41919;42.648;23.384;2023-05-02T07:33:51;94981.66;;;18.14;41.49
56052;BME280;41919;42.648;23.384;2023-05-02T07:36:16;94956.84;;;18.54;40.01
56052;BME280;41919;42.648;23.384;2023-05-02T07:38:42;94988.03;;;18.52;40.66
56052;BME280;41919;42.648;23.384;2023-05-02T07:41:07;95001.81;;;18.71;40.52
56052;BME280;41919;42.648;23.384;2023-05-02T07:43:33;95005.81;;;18.90;39.32
56052;BME280;41919;42.648;23.384;2023-05-02T07:46:03;94926.19;;;18.58;40.28
56052;BME280;41919;42.648;23.384;2023-05-02T07:48:28;94998.94;;;18.72;40.49
56052;BME280;41919;42.648;23.384;2023-05-02T07:50:54;95007.59;;;18.85;40.47
56052;BME280;41919;42.648;23.384;2023-05-02T07:53:19;94993.28;;;18.47;41.37
56052;BME280;41919;42.648;23.384;2023-05-02T07:55:45;94949.75;;;18.03;40.54
56052;BME280;41919;42.648;23.384;2023-05-02T07:58:10;94982.78;;;18.18;41.97
56052;BME280;41919;42.648;23.384;2023-05-02T08:00:36;94994.63;;;18.49;41.29
56052;BME280;41919;42.648;23.384;2023-05-02T08:03:01;94999.34;;;18.64;40.29
56052;BME280;41919;42.648;23.384;2023-05-02T08:05:27;94987.00;;;18.70;41.36
56052;BME280;41919;42.648;23.384;2023-05-02T08:07:52;94948.50;;;18.62;40.29
56052;BME280;41919;42.648;23.384;2023-05-02T08:10:17;95001.94;;;18.98;38.89
56052;BME280;41919;42.648;23.384;2023-05-02T08:12:43;95001.53;;;19.28;39.59
56052;BME280;41919;42.648;23.384;2023-05-02T08:15:10;94997.59;;;19.09;39.91
56052;BME280;41919;42.648;23.384;2023-05-02T08:17:36;94975.78;;;19.02;39.76
56052;BME280;41919;42.648;23.384;2023-05-02T08:20:01;94991.84;;;18.95;40.32
56052;BME280;41919;42.648;23.384;2023-05-02T08:22:27;94955.56;;;18.95;39.17
56052;BME280;41919;42.648;23.384;2023-05-02T08:24:52;94988.31;;;19.55;38.35
56052;BME280;41919;42.648;23.384;2023-05-02T08:27:18;94991.56;;;19.63;37.46
56052;BME280;41919;42.648;23.384;2023-05-02T08:29:43;94987.50;;;19.28;38.77
56052;BME280;41919;42.648;23.384;2023-05-02T08:32:09;94928.56;;;18.54;38.60
56052;BME280;41919;42.648;23.384;2023-05-02T08:34:34;94985.44;;;18.91;38.85
56052;BME280;41919;42.648;23.384;2023-05-02T08:36:59;95001.72;;;19.22;38.84
56052;BME280;41919;42.648;23.384;2023-05-02T08:39:25;94977.66;;;19.50;38.60
56052;BME280;41919;42.648;23.384;2023-05-02T08:41:50;94948.94;;;19.42;37.33
56052;BME280;41919;42.648;23.384;2023-05-02T08:44:16;94984.59;;;19.78;37.70
56052;BME280;41919;42.648;23.384;2023-05-02T08:46:42;94958.13;;;19.34;37.03
56052;BME280;41919;42.648;23.384;2023-05-02T08:49:09;94991.41;;;19.47;36.96
56052;BME280;41919;42.648;23.384;2023-05-02T08:51:36;94984.63;;;19.34;37.34
56052;BME280;41919;42.648;23.384;2023-05-02T08:54:02;94990.66;;;19.52;36.82
56052;BME280;41919;42.648;23.384;2023-05-02T08:56:28;94981.97;;;19.56;37.13
56052;BME280;41919;42.648;23.384;2023-05-02T08:58:53;94985.19;;;19.86;36.75
56052;BME280;41919;42.648;23.384;2023-05-02T09:01:22;94938.88;;;19.17;36.54
56052;BME280;41919;42.648;23.384;2023-05-02T09:03:48;94940.44;;;19.40;36.80
56052;BME280;41919;42.648;23.384;2023-05-02T09:06:16;94947.03;;;19.37;37.22
56052;BME280;41919;42.648;23.384;2023-05-02T09:08:43;94975.78;;;19.73;36.21
56052;BME280;41919;42.648;23.384;2023-05-02T09:11:10;94922.25;;;19.22;37.02
56052;BME280;41919;42.648;23.384;2023-05-02T09:13:41;94957.91;;;19.36;36.06
56052;BME280;41919;42.648;23.384;2023-05-02T09:16:12;94975.56;;;20.07;36.68
56052;BME280;41919;42.648;23.384;2023-05-02T09:18:49;94913.75;;;20.06;34.86
56052;BME280;41919;42.648;23.384;2023-05-02T09:21:16;94990.13;;;19.77;35.54
56052;BME280;41919;42.648;23.384;2023-05-02T09:28:41;94915.72;;;19.62;34.15
56052;BME280;41919;42.648;23.384;2023-05-02T09:31:11;94956.56;;;19.88;34.24
56052;BME280;41919;42.648;23.384;2023-05-02T09:33:38;94948.84;;;20.18;35.02
56052;BME280;41919;42.648;23.384;2023-05-02T09:36:05;94960.78;;;19.84;34.73
56052;BME280;41919;42.648;23.384;2023-05-02T09:38:31;94923.94;;;19.60;33.88
56052;BME280;41919;42.648;23.384;2023-05-02T09:40:58;94949.03;;;20.07;35.83
56052;BME280;41919;42.648;23.384;2023-05-02T09:43:24;94963.00;;;20.29;33.78
56052;BME280;41919;42.648;23.384;2023-05-02T09:46:03;94964.16;;;20.06;33.31
56052;BME280;41919;42.648;23.384;2023-05-02T09:48:30;94938.19;;;20.08;33.91
56052;BME280;41919;42.648;23.384;2023-05-02T09:50:56;94933.84;;;19.97;33.82
56052;BME280;41919;42.648;23.384;2023-05-02T09:53:26;94920.81;;;19.95;33.64
56052;BME280;41919;42.648;23.384;2023-05-02T09:56:02;94944.38;;;19.87;33.82
56052;BME280;41919;42.648;23.384;2023-05-02T09:58:28;94948.66;;;20.30;33.63
56052;BME280;41919;42.648;23.384;2023-05-02T10:00:56;94915.78;;;19.94;33.37
56052;BME280;41919;42.648;23.384;2023-05-02T10:03:23;94886.66;;;19.39;33.49
56052;BME280;41919;42.648;23.384;2023-05-02T10:05:49;94903.97;;;19.25;34.52
56052;BME280;41919;42.648;23.384;2023-05-02T10:08:17;94898.09;;;19.45;35.21
56052;BME280;41919;42.648;23.384;2023-05-02T10:10:54;94921.78;;;19.84;34.96
56052;BME280;41919;42.648;23.384;2023-05-02T10:13:22;94881.97;;;19.19;34.20
56052;BME280;41919;42.648;23.384;2023-05-02T10:16:10;94930.50;;;19.52;34.65
56052;BME280;41919;42.648;23.384;2023-05-02T10:21:25;94868.53;;;19.04;34.31
56052;BME280;41919;42.648;23.384;2023-05-02T10:23:54;94905.50;;;19.43;34.15
56052;BME280;41919;42.648;23.384;2023-05-02T10:26:21;94921.97;;;19.72;34.41
56052;BME280;41919;42.648;23.384;2023-05-02T10:28:48;94864.91;;;19.37;34.12
56052;BME280;41919;42.648;23.384;2023-05-02T10:31:14;94908.47;;;19.74;34.15
56052;BME280;41919;42.648;23.384;2023-05-02T10:33:40;94905.28;;;19.50;33.87
56052;BME280;41919;42.648;23.384;2023-05-02T10:36:08;94897.25;;;19.39;35.16
56052;BME280;41919;42.648;23.384;2023-05-02T10:38:35;94845.97;;;19.24;35.28
56052;BME280;41919;42.648;23.384;2023-05-02T10:41:25;94860.75;;;19.47;33.42
56052;BME280;41919;42.648;23.384;2023-05-02T10:43:52;94895.69;;;20.03;33.62
56052;BME280;41919;42.648;23.384;2023-05-02T10:46:35;94890.09;;;20.00;34.04
56052;BME280;41919;42.648;23.384;2023-05-02T10:51:28;94858.53;;;19.66;33.69
56052;BME280;41919;42.648;23.384;2023-05-02T10:53:54;94900.56;;;19.79;33.21
56052;BME280;41919;42.648;23.384;2023-05-02T10:57:00;94903.22;;;19.79;34.36
56052;BME280;41919;42.648;23.384;2023-05-02T10:59:39;94903.59;;;19.66;33.30
56052;BME280;41919;42.648;23.384;2023-05-02T11:05:06;94876.56;;;19.69;34.23
56052;BME280;41919;42.648;23.384;2023-05-02T11:07:36;94892.44;;;19.96;33.80
56052;BME280;41919;42.648;23.384;2023-05-02T11:12:46;94887.00;;;20.13;32.95
56052;BME280;41919;42.648;23.384;2023-05-02T11:18:04;94900.91;;;20.30;32.25
56052;BME280;41919;42.648;23.384;2023-05-02T11:20:34;94887.03;;;20.18;32.93
56052;BME280;41919;42.648;23.384;2023-05-02T11:23:20;94875.63;;;20.17;32.92
56052;BME280;41919;42.648;23.384;2023-05-02T11:25:48;94880.69;;;20.24;33.55
56052;BME280;41919;42.648;23.384;2023-05-02T11:31:05;94884.75;;;20.37;33.43
56052;BME280;41919;42.648;23.384;2023-05-02T11:33:31;94872.69;;;20.19;33.43
56052;BME280;41919;42.648;23.384;2023-05-02T11:35:56;94878.78;;;20.14;32.83
56052;BME280;41919;42.648;23.384;2023-05-02T11:38:23;94826.41;;;19.94;34.31
56052;BME280;41919;42.648;23.384;2023-05-02T11:40:51;94868.84;;;20.00;34.61
56052;BME280;41919;42.648;23.384;2023-05-02T11:43:18;94869.16;;;20.03;34.40
56052;BME280;41919;42.648;23.384;2023-05-02T11:45:44;94892.81;;;20.10;35.65
56052;BME280;41919;42.648;23.384;2023-05-02T11:48:15;94865.28;;;20.21;34.70
56052;BME280;41919;42.648;23.384;2023-05-02T11:50:52;94864.47;;;20.15;35.61
56052;BME280;41919;42.648;23.384;2023-05-02T11:53:20;94853.94;;;20.31;33.69
56052;BME280;41919;42.648;23.384;2023-05-02T11:55:49;94822.03;;;19.78;34.13
56052;BME280;41919;42.648;23.384;2023-05-02T11:58:16;94866.97;;;19.95;34.71
56052;BME280;41919;42.648;23.384;2023-05-02T12:00:43;94862.53;;;20.06;33.72
56052;BME280;41919;42.648;23.384;2023-05-02T12:03:29;94844.44;;;19.97;35.07
56052;BME280;41919;42.648;23.384;2023-05-02T12:05:57;94795.56;;;19.83;34.31
56052;BME280;41919;42.648;23.384;2023-05-02T12:08:32;94842.88;;;20.02;33.92
56052;BME280;41919;42.648;23.384;2023-05-02T12:10:57;94840.53;;;20.05;33.75
56052;BME280;41919;42.648;23.384;2023-05-02T12:13:24;94787.09;;;19.86;33.57
56052;BME280;41919;42.648;23.384;2023-05-02T12:15:51;94835.63;;;20.29;33.18
56052;BME280;41919;42.648;23.384;2023-05-02T12:18:18;94831.16;;;20.40;32.80
56052;BME280;41919;42.648;23.384;2023-05-02T12:20:44;94832.00;;;20.51;32.04
56052;BME280;41919;42.648;23.384;2023-05-02T12:23:11;94832.88;;;20.62;32.61
56052;BME280;41919;42.648;23.384;2023-05-02T12:25:38;94825.09;;;20.50;32.50
56052;BME280;41919;42.648;23.384;2023-05-02T12:28:03;94812.03;;;20.38;32.26
56052;BME280;41919;42.648;23.384;2023-05-02T12:30:30;94841.81;;;20.45;32.24
56052;BME280;41919;42.648;23.384;2023-05-02T12:32:58;94823.06;;;20.14;32.69
56052;BME280;41919;42.648;23.384;2023-05-02T12:35:25;94824.16;;;20.18;33.36
56052;BME280;41919;42.648;23.384;2023-05-02T12:37:51;94818.72;;;19.98;33.23
56052;BME280;41919;42.648;23.384;2023-05-02T12:40:19;94782.03;;;19.85;32.68
56052;BME280;41919;42.648;23.384;2023-05-02T12:43:01;94794.59;;;20.00;33.52
56052;BME280;41919;42.648;23.384;2023-05-02T12:45:31;94801.56;;;20.11;32.85
56052;BME280;41919;42.648;23.384;2023-05-02T12:48:21;94742.69;;;19.71;33.19
56052;BME280;41919;42.648;23.384;2023-05-02T12:50:47;94803.69;;;20.14;33.43
56052;BME280;41919;42.648;23.384;2023-05-02T12:53:13;94805.81;;;20.12;32.58
56052;BME280;41919;42.648;23.384;2023-05-02T12:55:38;94786.72;;;20.10;32.61
56052;BME280;41919;42.648;23.384;2023-05-02T12:58:06;94790.44;;;20.19;33.10
56052;BME280;41919;42.648;23.384;2023-05-02T13:00:33;94732.22;;;19.87;31.61
56052;BME280;41919;42.648;23.384;2023-05-02T13:03:00;94747.28;;;19.81;32.13
56052;BME280;41919;42.648;23.384;2023-05-02T13:05:25;94799.47;;;20.18;32.18
56052;BME280;41919;42.648;23.384;2023-05-02T13:07:51;94804.53;;;20.20;31.98
56052;BME280;41919;42.648;23.384;2023-05-02T13:10:17;94795.22;;;20.17;31.84
56052;BME280;41919;42.648;23.384;2023-05-02T13:12:44;94799.44;;;20.08;31.86
56052;BME280;41919;42.648;23.384;2023-05-02T13:15:11;94791.56;;;19.81;32.01
56052;BME280;41919;42.648;23.384;2023-05-02T13:17:38;94799.91;;;19.67;32.51
56052;BME280;41919;42.648;23.384;2023-05-02T13:20:03;94808.00;;;19.77;32.55
56052;BME280;41919;42.648;23.384;2023-05-02T13:22:29;94748.34;;;19.43;32.94
56052;BME280;41919;42.648;23.384;2023-05-02T13:24:55;94800.69;;;19.63;31.38
56052;BME280;41919;42.648;23.384;2023-05-02T13:27:23;94751.88;;;19.21;32.34
56052;BME280;41919;42.648;23.384;2023-05-02T13:29:49;94806.50;;;19.59;32.61
56052;BME280;41919;42.648;23.384;2023-05-02T13:32:14;94792.19;;;19.61;32.77
56052;BME280;41919;42.648;23.384;2023-05-02T13:34:40;94784.75;;;19.57;32.73
56052;BME280;41919;42.648;23.384;2023-05-02T13:37:06;94791.78;;;19.42;33.01